Flight Track Log - Related Links

Times and Time Zones

All times are in EDT time to prevent confusion due to time zone crossing. See the SWA1810 flight status page for this flight to view local times or setup timezone preferences in your user account.

Time Position Orientation Groundspeed Altitude Reporting Facility
EDT Latitude Longitude Course Direction KTS MPH feet Rate Location/Type
Thu 11:10:19 AM 39.1333 -76.6667 303° West 194 223 2,300  Level Potomac TRACON
Thu 11:11:19 AM 39.1667 -76.7333 303° West 227 261 4,900 2,800 Climbing Potomac TRACON
Thu 11:12:19 AM 39.1833 -76.8167 284° West 277 319 7,900 3,150 Climbing Potomac TRACON
Thu 11:13:19 AM 39.1833 -76.9333 270° West 311 358 11,200 3,350 Climbing Potomac TRACON
Thu 11:14:19 AM 39.2000 -77.0500 280° West 354 407 14,600 2,886 Climbing Potomac TRACON
Thu 11:16:24 AM 39.1000 -77.2553 238° Southwest 336 387 20,100 2,656 Climbing Washington Center
Thu 11:17:22 AM 39.0092 -77.3414 216° Southwest 363 418 22,700 1,525 Climbing Washington Center
Thu 11:18:22 AM 38.9756 -77.4819 253° West 389 448 23,100 1,537 Climbing Washington Center
Thu 11:19:23 AM 38.9500 -77.6494 259° West 426 490 25,800 2,705 Climbing Washington Center
Thu 11:20:24 AM 38.9453 -77.7989 268° West 431 496 28,600 2,083 Climbing Washington Center
Thu 11:21:24 AM 38.9528 -77.9539 274° West 431 496 30,000 712 Climbing Washington Center
Thu 11:22:22 AM 38.9581 -78.1064 273° West 431 496 30,000  Level Washington Center
Thu 11:23:22 AM 38.9608 -78.2611 271° West 436 502 30,000  Level Washington Center
Thu 11:24:23 AM 38.9678 -78.4164 273° West 436 502 30,000  Level Washington Center
Thu 11:25:24 AM 38.9725 -78.5661 272° West 436 502 30,000  Level Washington Center
Thu 11:26:21 AM 38.9769 -78.7239 272° West 436 502 30,000  Level Washington Center
Thu 11:27:23 AM 38.9811 -78.8761 272° West 442 509 30,000  Level Washington Center
Thu 11:28:23 AM 38.9853 -79.0311 272° West 442 509 30,000  Level Washington Center
Thu 11:29:24 AM 38.9892 -79.1836 272° West 442 509 30,000  Level Washington Center
Thu 11:30:22 AM 38.9928 -79.3361 272° West 442 509 30,000  Level Washington Center
Thu 11:31:23 AM 38.9983 -79.4914 273° West 442 509 30,000  Level Washington Center
Thu 11:33:39 AM 38.9994 -79.8317 270° West 428 493 30,000  Level Indianapolis Center
Thu 11:34:41 AM 39.0022 -79.9817 271° West 432 497 30,000  Level Indianapolis Center
Thu 11:35:43 AM 39.0050 -80.1556 271° West 433 498 30,000  Level Indianapolis Center
Thu 11:36:45 AM 39.0083 -80.3106 272° West 434 499 30,000  Level Indianapolis Center
Thu 11:37:46 AM 39.0283 -80.4617 280° West 431 496 30,000  Level Indianapolis Center
Thu 11:38:48 AM 39.0728 -80.6069 292° West 434 499 30,000  Level Indianapolis Center
Thu 11:39:50 AM 39.1175 -80.7547 291° West 443 510 30,000  Level Indianapolis Center
Thu 11:40:52 AM 39.1614 -80.8981 292° West 435 501 30,000 -194 Level Indianapolis Center
Thu 11:41:54 AM 39.2136 -81.0717 291° West 435 501 29,600 -1,065 Descending Indianapolis Center
Thu 11:42:56 AM 39.2550 -81.2058 292° West 410 472 27,800 -1,790 Descending Indianapolis Center
Thu 11:43:58 AM 39.2939 -81.3364 291° West 395 455 25,900 -1,790 Descending Indianapolis Center
Thu 11:45:00 AM 39.3308 -81.4650 290° West 385 443 24,100 -1,756 Descending Indianapolis Center
Thu 11:46:01 AM 39.3686 -81.5903 291° West 377 434 22,300 -1,707 Descending Indianapolis Center
Thu 11:47:03 AM 39.4039 -81.7111 291° West 364 419 20,600 -1,790 Descending Indianapolis Center
Thu 11:48:05 AM 39.4461 -81.8531 291° West 355 409 18,600 -1,645 Descending Indianapolis Center
Thu 11:49:07 AM 39.4794 -81.9669 291° West 343 395 17,200 -1,548 Descending Indianapolis Center
Thu 11:50:09 AM 39.5128 -82.0822 291° West 342 394 15,400 -1,832 Descending Indianapolis Center
Thu 11:50:42 AM 39.5306 -82.1489 289° West 338 389 14,300 -1,935 Descending Indianapolis Center
Thu 11:51:11 AM 39.5458 -82.1969 292° West 338 389 13,400 -1,837 Descending Indianapolis Center
Thu 11:51:31 AM 39.5581 -82.2461 288° West 334 384 12,800 -1,574 Descending Indianapolis Center
Thu 11:52:12 AM 39.5786 -82.3078 293° West 328 377 11,800 -1,612 Descending Indianapolis Center
Thu 11:52:38 AM 39.5928 -82.3606 289° West 322 371 11,000 -1,742 Descending Indianapolis Center
Thu 11:53:14 AM 39.6089 -82.4167 290° West 320 368 10,000 -984 Descending Indianapolis Center
Thu 11:53:39 AM 39.6250 -82.4778 289° West 318 366 10,000  Level Indianapolis Center
Thu 11:54:16 AM 39.6414 -82.5247 294° West 319 367 10,000  Level Indianapolis Center
Thu 11:54:34 AM 39.6528 -82.5672 289° West 316 364 10,000 -968 Level Indianapolis Center
Thu 11:55:18 AM 39.6767 -82.6497 291° West 314 361 9,000 -1,364 Descending Indianapolis Center
Thu 11:55:40 AM 39.6867 -82.6875 289° West 310 357 8,500 -1,065 Descending Indianapolis Center
Thu 11:56:20 AM 39.7081 -82.7522 293° West 305 351 7,900 -492 Descending Indianapolis Center
Thu 11:56:41 AM 39.7178 -82.7883 289° West 303 349 8,000  Climbing Indianapolis Center
Thu 11:57:21 AM 39.7383 -82.8544 292° West 301 346 7,900  Descending Indianapolis Center
Thu 11:57:42 AM 39.7467 -82.8867 289° West 286 329 8,000 -290 Climbing Indianapolis Center
Thu 11:58:23 AM 39.7650 -82.9442 293° West 266 306 7,600 -590 Descending Indianapolis Center
Thu 11:58:43 AM 39.7742 -82.9739 292° West 254 292 7,400 -774 Descending Indianapolis Center
Thu 11:59:25 AM 39.7922 -83.0308 292° West 258 297 6,800 -984 Descending Indianapolis Center
Thu 11:59:44 AM 39.8147 -83.0544 321° Northwest 252 290 6,400 -871 Descending Indianapolis Center
Thu 12:00:27 PM 39.8469 -83.0872 322° Northwest 253 291 5,900 -492 Descending Indianapolis Center
Thu 12:00:45 PM 39.8697 -83.1069 326° Northwest 243 280 5,900 -677 Level Indianapolis Center
Thu 12:01:29 PM 39.9022 -83.1378 324° Northwest 246 283 5,200 -900 Descending Indianapolis Center
Thu 12:01:45 PM 39.9228 -83.1567 325° Northwest 237 273 5,000 -197 Descending Indianapolis Center
Thu 12:02:30 PM 39.9594 -83.1722 342° North 237 273 5,000  Level Indianapolis Center
Thu 12:02:46 PM 39.9825 -83.1719 North 202 232 5,000 -1,065 Level Indianapolis Center
Thu 12:03:32 PM 40.0056 -83.1361 50° Northeast 191 220 3,900 -1,377 Descending Indianapolis Center
Thu 12:03:47 PM 40.0069 -83.1203 83° East 174 200 3,600 -968 Descending Indianapolis Center
Thu 12:04:34 PM 40.0039 -83.0725 95° East 180 207 2,900 -716 Descending Indianapolis Center
Thu 12:05:36 PM 40.0008 -83.0108 94° East 173 199 2,300 -677 Descending Indianapolis Center
Thu 12:06:38 PM 39.9972 -82.9564 95° East 161 185 1,500 -581 Descending Indianapolis Center
Thu 12:07:40 PM 39.9944 -82.9044 94° East 153 176 1,100 -387 Descending Indianapolis Center

Login

Don't have an account? Register now (free) for customized features, flight alerts, and more!